Saturday, August 27, 2016
08:18 UTC
  |  Log In   |  Register Free
Airport Search:

Teterboro Airport
(KTEB)

FAA data valid effective Jul 21 2016 - Sep 15 2016 (unless otherwise noted).

 
 
 
 
 
 
 
 
 
 
 
 
 
 
Current Aviation Weather for KTEB

Weather Summary


The most recent METAR observation for TEB was updated at: 12:51 UTC
METAR for TEB is not available. Closest METAR is for
METAR

METAR KTEB 270751Z 33003KT 10SM CLR 21/17 A3010 RMK AO2 SLP193 T02110172

METAR KTEB 270651Z 35003KT 10SM CLR 23/17 A3009 RMK AO2 SLP190 T02330172

METAR KTEB 270551Z 33003KT 10SM CLR 24/18 A3008 RMK AO2 SLP187 T02390178 10294 20233 51012

METAR K12N 270754Z 00000KT 17/16 A3015 RMK AO1 SLP201 T01720161

METAR KCDW 270753Z 00000KT 10SM CLR 20/18 A3013 RMK AO2 SLP205 T02000183 TSNO

METAR KEWR 270751Z 02005KT 10SM CLR 23/17 A3011 RMK AO2 SLP194 T02280172

TAF for TEB is not available.
TAF

KTEB - TAF KTEB 270520Z 2706/2806 01004KT P6SM SKC

KTEB - FM271400 06005KT P6SM FEW250

KTEB - FM271700 10006KT P6SM FEW050 SCT250

KTEB - FM271900 15006KT P6SM FEW050 SCT250

KTEB - FM280100 VRB04KT P6SM FEW250 =

KLGA - TAF KLGA 270520Z 2706/2806 01008KT P6SM SKC

KLGA - FM271400 06009KT P6SM FEW250

KLGA - FM271900 09009KT P6SM FEW050 SCT250

KLGA - FM272100 15009KT P6SM FEW050 SCT250

KLGA - FM280300 15006KT P6SM FEW250 =

KEWR - TAF KEWR 270520Z 2706/2812 01007KT P6SM SKC

KEWR - FM271400 06007KT P6SM FEW250

KEWR - FM271700 09008KT P6SM FEW050 SCT250

KEWR - FM271900 15008KT P6SM FEW050 SCT250

KEWR - FM280000 15005KT P6SM FEW250 =

KJFK - TAF KJFK 270520Z 2706/2812 01008KT P6SM SKC

KJFK - FM271400 05009KT P6SM FEW250

KJFK - FM271700 14010KT P6SM FEW050 SCT250

KJFK - FM280000 15007KT P6SM FEW250

KJFK - FM280400 15004KT P6SM SKC =

KHPN - TAF KHPN 270520Z 2706/2806 VRB05KT P6SM SKC

KHPN - FM271200 01006KT P6SM SKC

KHPN - FM271500 06007KT P6SM FEW250

KHPN - FM271800 14007KT P6SM FEW050 SCT250

KHPN - FM280000 VRB04KT P6SM FEW250 AMD NOT SKED =

GlobalAir.com is loading additional information.
 Current Weather at TEB
74.0 F° (23.3 C°)

North winds at 3.5 mph
Pressure:
30.09 in
Humidity:
69%
Wind:
North at 3.5 mph
Dew Point:
63.0 F° (17.2 C°)
Visibility:
10.00 mi
TEB NOAA Radar




Find All Airport Services Find A Hotel Find A Rental Car Find A Golf Course Find A Restaurant $100 Hamburger



Airport Weather Forecast for KTEB

Translated METAR for KTEB (0751 UTC)
METAR:
KTEB 270751Z Teterboro, Teterboro, NJ (KTEB). Aug 27, 0751Z. Wind from 330° at 3 knots, 10 statute miles visibility, Clear Skies, Temperature 21°C, Dewpoint 17°C, Altimeter is 30.10. Remarks: automated station with precipitation discriminator sea level pressure 1019.3 hectopascals hourly temp 21.1°C dewpoint 17.2°C
Conditions at:
KTEB (Teterboro, NJ) observed 0751 UTC 27 August 2016
Temperature:
74.0 F° (23.3 C°)
Dewpoint:
not reported - refer to area weather report
Pressure:
30.09 Hg
Winds:
not reported
Visibility:
10.00
Ceiling:
at least 12,000 feet AGL
Clouds:
not reported - refer to area weather report
Remarks:

Translated TAF for TAF for TEB is not available. Refer to local area forecast.
FBO's on the Field
FBO Company Facility Photos Services Transportation Aviation Fuel Prices: Prices include tax
Catering Weather Repair Courtesy Rental Type 100LL JetA JetA+ MOGAS 8087
 
Atlantic Aviation

Currently rated 4.7 by 2 people
FS:Independent
Last Updated: Aug-23
Login to update fuel prices
SS:
Contact Atlantic AviationMore FBO Information
 
Jet Aviation

Currently rated 5 by 3 people
FS:Phillips 66
Last Updated: Jul-22
Login to update fuel prices
SS:
Contact Jet AviationMore FBO Information
 
Meridian Teterboro

Currently rated 4.6 by 5 people
FS:Shell
Last Updated: Aug-18
Login to update fuel prices
SS:
Contact Meridian TeterboroMore FBO Information
 
Signature Flight Support - East

This FBO has not yet been rated
FS:Independent
Last Updated: Aug-23
Login to update fuel prices
SS:
Contact Signature Flight Support - EastMore FBO Information
 
Signature Flight Support - South

Currently rated 5 by 5 people
FS:Epic
Last Updated: Aug-23
Login to update fuel prices
SS:
Contact Signature Flight Support - SouthMore FBO Information
 
Signature Flight Support - West

Currently rated 5 by 1 person
FS:Independent
Last Updated: Aug-23
Login to update fuel prices
SS:
Contact Signature Flight Support - WestMore FBO Information
 
Add another FBO Facility Photos Catering Weather Repair Courtesy Rental Type 100LL JetA JetA+ MOGAS 8087
Services Transportation Aviation Fuel Prices: Prices include tax


model-print
model-print
model-print
model-print